sensor_id;sensor_type;location;lat;lon;timestamp;P1;durP1;ratioP1;P2;durP2;ratioP2
42964;SDS011;28604;51.204;22.552;2023-03-11T00:01:01;13.80;;;6.30;;
42964;SDS011;28604;51.204;22.552;2023-03-11T00:03:27;6.97;;;5.82;;
42964;SDS011;28604;51.204;22.552;2023-03-11T00:05:54;10.38;;;6.03;;
42964;SDS011;28604;51.204;22.552;2023-03-11T00:08:22;10.40;;;6.93;;
42964;SDS011;28604;51.204;22.552;2023-03-11T00:10:53;9.68;;;6.18;;
42964;SDS011;28604;51.204;22.552;2023-03-11T00:13:20;6.28;;;5.57;;
42964;SDS011;28604;51.204;22.552;2023-03-11T00:15:47;6.22;;;5.63;;
42964;SDS011;28604;51.204;22.552;2023-03-11T00:18:14;8.00;;;5.70;;
42964;SDS011;28604;51.204;22.552;2023-03-11T00:20:43;8.68;;;6.18;;
42964;SDS011;28604;51.204;22.552;2023-03-11T00:23:11;5.95;;;5.00;;
42964;SDS011;28604;51.204;22.552;2023-03-11T00:25:38;8.85;;;5.35;;
42964;SDS011;28604;51.204;22.552;2023-03-11T00:28:05;9.50;;;6.13;;
42964;SDS011;28604;51.204;22.552;2023-03-11T00:30:31;6.93;;;5.03;;
42964;SDS011;28604;51.204;22.552;2023-03-11T00:32:58;9.68;;;5.90;;
42964;SDS011;28604;51.204;22.552;2023-03-11T00:35:26;8.00;;;5.90;;
42964;SDS011;28604;51.204;22.552;2023-03-11T00:37:55;7.63;;;5.05;;
42964;SDS011;28604;51.204;22.552;2023-03-11T00:40:26;6.37;;;4.57;;
42964;SDS011;28604;51.204;22.552;2023-03-11T00:42:54;4.93;;;4.43;;
42964;SDS011;28604;51.204;22.552;2023-03-11T00:45:20;5.65;;;3.70;;
42964;SDS011;28604;51.204;22.552;2023-03-11T00:47:46;7.45;;;3.63;;
42964;SDS011;28604;51.204;22.552;2023-03-11T00:50:17;6.95;;;4.10;;
42964;SDS011;28604;51.204;22.552;2023-03-11T00:52:46;5.07;;;4.57;;
42964;SDS011;28604;51.204;22.552;2023-03-11T00:55:13;7.72;;;5.35;;
42964;SDS011;28604;51.204;22.552;2023-03-11T00:57:42;6.40;;;4.78;;
42964;SDS011;28604;51.204;22.552;2023-03-11T01:00:11;6.38;;;4.80;;
42964;SDS011;28604;51.204;22.552;2023-03-11T01:02:42;7.57;;;5.32;;
42964;SDS011;28604;51.204;22.552;2023-03-11T01:05:08;6.65;;;5.28;;
42964;SDS011;28604;51.204;22.552;2023-03-11T01:07:35;9.00;;;6.07;;
42964;SDS011;28604;51.204;22.552;2023-03-11T01:10:03;6.32;;;5.30;;
42964;SDS011;28604;51.204;22.552;2023-03-11T01:12:30;8.07;;;5.82;;
42964;SDS011;28604;51.204;22.552;2023-03-11T01:15:00;7.78;;;5.82;;
42964;SDS011;28604;51.204;22.552;2023-03-11T01:17:27;7.80;;;5.15;;
42964;SDS011;28604;51.204;22.552;2023-03-11T01:19:53;10.35;;;6.55;;
42964;SDS011;28604;51.204;22.552;2023-03-11T01:22:21;7.13;;;5.00;;
42964;SDS011;28604;51.204;22.552;2023-03-11T01:24:46;6.88;;;4.97;;
42964;SDS011;28604;51.204;22.552;2023-03-11T01:27:13;8.70;;;5.43;;
42964;SDS011;28604;51.204;22.552;2023-03-11T01:29:38;6.15;;;5.53;;
42964;SDS011;28604;51.204;22.552;2023-03-11T01:32:05;6.90;;;4.68;;
42964;SDS011;28604;51.204;22.552;2023-03-11T01:34:31;5.72;;;4.90;;
42964;SDS011;28604;51.204;22.552;2023-03-11T01:37:03;6.32;;;5.00;;
42964;SDS011;28604;51.204;22.552;2023-03-11T01:39:29;6.72;;;4.82;;
42964;SDS011;28604;51.204;22.552;2023-03-11T01:41:56;5.53;;;5.03;;
42964;SDS011;28604;51.204;22.552;2023-03-11T01:44:22;9.15;;;4.53;;
42964;SDS011;28604;51.204;22.552;2023-03-11T01:49:20;4.43;;;3.80;;
42964;SDS011;28604;51.204;22.552;2023-03-11T01:51:47;5.22;;;4.72;;
42964;SDS011;28604;51.204;22.552;2023-03-11T01:54:20;5.10;;;4.57;;
42964;SDS011;28604;51.204;22.552;2023-03-11T01:56:49;7.32;;;4.13;;
42964;SDS011;28604;51.204;22.552;2023-03-11T01:59:17;5.68;;;4.25;;
42964;SDS011;28604;51.204;22.552;2023-03-11T02:02:07;6.38;;;4.85;;
42964;SDS011;28604;51.204;22.552;2023-03-11T02:04:39;4.53;;;4.07;;
42964;SDS011;28604;51.204;22.552;2023-03-11T02:07:07;5.85;;;4.53;;
42964;SDS011;28604;51.204;22.552;2023-03-11T02:09:34;5.95;;;4.88;;
42964;SDS011;28604;51.204;22.552;2023-03-11T02:12:01;6.22;;;5.13;;
42964;SDS011;28604;51.204;22.552;2023-03-11T02:14:29;6.45;;;5.15;;
42964;SDS011;28604;51.204;22.552;2023-03-11T02:16:55;10.18;;;5.10;;
42964;SDS011;28604;51.204;22.552;2023-03-11T02:21:56;4.60;;;4.20;;
42964;SDS011;28604;51.204;22.552;2023-03-11T02:24:39;5.18;;;4.85;;
42964;SDS011;28604;51.204;22.552;2023-03-11T02:27:11;6.47;;;5.53;;
42964;SDS011;28604;51.204;22.552;2023-03-11T02:29:39;10.68;;;7.18;;
42964;SDS011;28604;51.204;22.552;2023-03-11T02:32:07;8.18;;;7.03;;
42964;SDS011;28604;51.204;22.552;2023-03-11T02:34:38;9.07;;;7.03;;
42964;SDS011;28604;51.204;22.552;2023-03-11T02:37:06;9.82;;;7.05;;
42964;SDS011;28604;51.204;22.552;2023-03-11T02:39:42;9.82;;;6.40;;
42964;SDS011;28604;51.204;22.552;2023-03-11T02:42:14;11.65;;;7.30;;
42964;SDS011;28604;51.204;22.552;2023-03-11T02:45:10;11.35;;;7.47;;
42964;SDS011;28604;51.204;22.552;2023-03-11T02:47:38;10.32;;;7.75;;
42964;SDS011;28604;51.204;22.552;2023-03-11T02:50:08;8.90;;;7.80;;
42964;SDS011;28604;51.204;22.552;2023-03-11T02:52:37;8.05;;;7.25;;
42964;SDS011;28604;51.204;22.552;2023-03-11T02:55:03;10.88;;;7.57;;
42964;SDS011;28604;51.204;22.552;2023-03-11T02:57:30;13.77;;;8.13;;
42964;SDS011;28604;51.204;22.552;2023-03-11T02:59:56;11.52;;;6.85;;
42964;SDS011;28604;51.204;22.552;2023-03-11T03:02:22;10.65;;;8.70;;
42964;SDS011;28604;51.204;22.552;2023-03-11T03:04:48;11.68;;;8.27;;
42964;SDS011;28604;51.204;22.552;2023-03-11T03:07:15;12.38;;;9.07;;
42964;SDS011;28604;51.204;22.552;2023-03-11T03:09:40;12.90;;;9.00;;
42964;SDS011;28604;51.204;22.552;2023-03-11T03:12:06;14.63;;;9.63;;
42964;SDS011;28604;51.204;22.552;2023-03-11T03:14:34;14.57;;;10.73;;
42964;SDS011;28604;51.204;22.552;2023-03-11T03:17:00;14.07;;;10.13;;
42964;SDS011;28604;51.204;22.552;2023-03-11T03:19:26;15.52;;;10.30;;
42964;SDS011;28604;51.204;22.552;2023-03-11T03:21:53;14.05;;;10.80;;
42964;SDS011;28604;51.204;22.552;2023-03-11T03:24:21;13.23;;;10.43;;
42964;SDS011;28604;51.204;22.552;2023-03-11T03:26:47;12.15;;;10.45;;
42964;SDS011;28604;51.204;22.552;2023-03-11T03:29:13;14.80;;;10.18;;
42964;SDS011;28604;51.204;22.552;2023-03-11T03:31:39;12.38;;;10.65;;
42964;SDS011;28604;51.204;22.552;2023-03-11T03:34:06;16.77;;;10.70;;
42964;SDS011;28604;51.204;22.552;2023-03-11T03:36:33;14.35;;;10.63;;
42964;SDS011;28604;51.204;22.552;2023-03-11T03:39:02;14.05;;;9.40;;
42964;SDS011;28604;51.204;22.552;2023-03-11T03:41:32;11.32;;;9.90;;
42964;SDS011;28604;51.204;22.552;2023-03-11T03:43:58;12.32;;;10.07;;
42964;SDS011;28604;51.204;22.552;2023-03-11T03:46:25;9.85;;;8.85;;
42964;SDS011;28604;51.204;22.552;2023-03-11T03:48:54;11.82;;;9.90;;
42964;SDS011;28604;51.204;22.552;2023-03-11T03:51:21;13.05;;;10.27;;
42964;SDS011;28604;51.204;22.552;2023-03-11T03:54:13;12.13;;;9.68;;
42964;SDS011;28604;51.204;22.552;2023-03-11T03:56:40;10.70;;;9.18;;
42964;SDS011;28604;51.204;22.552;2023-03-11T03:59:06;12.38;;;10.13;;
42964;SDS011;28604;51.204;22.552;2023-03-11T04:01:38;13.45;;;9.98;;
42964;SDS011;28604;51.204;22.552;2023-03-11T04:04:03;13.80;;;9.80;;
42964;SDS011;28604;51.204;22.552;2023-03-11T04:06:29;11.52;;;9.00;;
42964;SDS011;28604;51.204;22.552;2023-03-11T04:08:59;11.30;;;9.00;;
42964;SDS011;28604;51.204;22.552;2023-03-11T04:11:29;11.90;;;9.20;;
42964;SDS011;28604;51.204;22.552;2023-03-11T04:13:57;12.35;;;8.93;;
42964;SDS011;28604;51.204;22.552;2023-03-11T04:16:23;11.70;;;8.38;;
42964;SDS011;28604;51.204;22.552;2023-03-11T04:18:53;9.40;;;7.85;;
42964;SDS011;28604;51.204;22.552;2023-03-11T04:21:22;13.45;;;9.23;;
42964;SDS011;28604;51.204;22.552;2023-03-11T04:23:49;10.68;;;8.40;;
42964;SDS011;28604;51.204;22.552;2023-03-11T04:26:18;8.05;;;7.25;;
42964;SDS011;28604;51.204;22.552;2023-03-11T04:28:44;10.18;;;7.85;;
42964;SDS011;28604;51.204;22.552;2023-03-11T04:31:11;10.38;;;8.98;;
42964;SDS011;28604;51.204;22.552;2023-03-11T04:33:37;9.80;;;7.20;;
42964;SDS011;28604;51.204;22.552;2023-03-11T04:36:06;8.80;;;7.35;;
42964;SDS011;28604;51.204;22.552;2023-03-11T04:38:34;8.20;;;7.13;;
42964;SDS011;28604;51.204;22.552;2023-03-11T04:41:01;8.75;;;7.57;;
42964;SDS011;28604;51.204;22.552;2023-03-11T04:43:28;10.68;;;8.23;;
42964;SDS011;28604;51.204;22.552;2023-03-11T04:45:54;8.30;;;7.50;;
42964;SDS011;28604;51.204;22.552;2023-03-11T04:48:20;9.15;;;7.57;;
42964;SDS011;28604;51.204;22.552;2023-03-11T04:50:47;8.07;;;7.13;;
42964;SDS011;28604;51.204;22.552;2023-03-11T04:53:13;9.82;;;7.93;;
42964;SDS011;28604;51.204;22.552;2023-03-11T04:55:40;7.85;;;7.05;;
42964;SDS011;28604;51.204;22.552;2023-03-11T04:58:06;9.20;;;8.02;;
42964;SDS011;28604;51.204;22.552;2023-03-11T05:00:34;9.00;;;7.95;;
42964;SDS011;28604;51.204;22.552;2023-03-11T05:03:04;10.18;;;7.35;;
42964;SDS011;28604;51.204;22.552;2023-03-11T05:05:30;7.28;;;6.65;;
42964;SDS011;28604;51.204;22.552;2023-03-11T05:07:56;11.68;;;7.53;;
42964;SDS011;28604;51.204;22.552;2023-03-11T05:10:23;12.20;;;8.40;;
42964;SDS011;28604;51.204;22.552;2023-03-11T05:12:52;11.85;;;7.18;;
42964;SDS011;28604;51.204;22.552;2023-03-11T05:15:20;9.25;;;7.97;;
42964;SDS011;28604;51.204;22.552;2023-03-11T05:17:46;9.98;;;8.27;;
42964;SDS011;28604;51.204;22.552;2023-03-11T05:20:13;15.73;;;8.88;;
42964;SDS011;28604;51.204;22.552;2023-03-11T05:22:40;9.95;;;7.85;;
42964;SDS011;28604;51.204;22.552;2023-03-11T05:25:07;12.98;;;7.68;;
42964;SDS011;28604;51.204;22.552;2023-03-11T05:27:35;8.80;;;7.65;;
42964;SDS011;28604;51.204;22.552;2023-03-11T05:30:01;9.68;;;8.13;;
42964;SDS011;28604;51.204;22.552;2023-03-11T05:32:30;9.27;;;7.85;;
42964;SDS011;28604;51.204;22.552;2023-03-11T05:34:56;7.75;;;6.95;;
42964;SDS011;28604;51.204;22.552;2023-03-11T05:37:21;11.02;;;7.28;;
42964;SDS011;28604;51.204;22.552;2023-03-11T05:39:50;7.80;;;6.95;;
42964;SDS011;28604;51.204;22.552;2023-03-11T05:42:16;7.60;;;6.60;;
42964;SDS011;28604;51.204;22.552;2023-03-11T05:44:44;9.57;;;7.80;;
42964;SDS011;28604;51.204;22.552;2023-03-11T05:47:10;10.52;;;7.88;;
42964;SDS011;28604;51.204;22.552;2023-03-11T05:49:37;9.57;;;7.28;;
42964;SDS011;28604;51.204;22.552;2023-03-11T05:52:03;7.90;;;6.50;;
42964;SDS011;28604;51.204;22.552;2023-03-11T05:54:30;10.80;;;7.55;;
42964;SDS011;28604;51.204;22.552;2023-03-11T05:56:56;11.05;;;7.63;;
42964;SDS011;28604;51.204;22.552;2023-03-11T05:59:23;8.73;;;7.35;;
42964;SDS011;28604;51.204;22.552;2023-03-11T06:01:55;10.75;;;7.47;;
42964;SDS011;28604;51.204;22.552;2023-03-11T06:04:23;8.75;;;7.18;;
42964;SDS011;28604;51.204;22.552;2023-03-11T06:06:49;10.57;;;8.23;;
42964;SDS011;28604;51.204;22.552;2023-03-11T06:09:17;16.80;;;8.52;;
42964;SDS011;28604;51.204;22.552;2023-03-11T06:11:44;8.50;;;7.45;;
42964;SDS011;28604;51.204;22.552;2023-03-11T06:14:11;10.85;;;8.27;;
42964;SDS011;28604;51.204;22.552;2023-03-11T06:16:39;12.23;;;8.63;;
42964;SDS011;28604;51.204;22.552;2023-03-11T06:19:07;14.88;;;9.43;;
42964;SDS011;28604;51.204;22.552;2023-03-11T06:21:38;12.38;;;8.38;;
42964;SDS011;28604;51.204;22.552;2023-03-11T06:24:04;14.32;;;9.15;;
42964;SDS011;28604;51.204;22.552;2023-03-11T06:26:31;12.75;;;8.77;;
42964;SDS011;28604;51.204;22.552;2023-03-11T06:28:57;13.95;;;9.13;;
42964;SDS011;28604;51.204;22.552;2023-03-11T06:31:24;15.05;;;9.60;;
42964;SDS011;28604;51.204;22.552;2023-03-11T06:33:54;14.52;;;8.70;;
42964;SDS011;28604;51.204;22.552;2023-03-11T06:36:21;12.35;;;9.10;;
42964;SDS011;28604;51.204;22.552;2023-03-11T06:38:52;13.55;;;10.18;;
42964;SDS011;28604;51.204;22.552;2023-03-11T06:41:19;18.13;;;10.00;;
42964;SDS011;28604;51.204;22.552;2023-03-11T06:43:46;14.07;;;9.88;;
42964;SDS011;28604;51.204;22.552;2023-03-11T06:46:14;11.95;;;9.38;;
42964;SDS011;28604;51.204;22.552;2023-03-11T06:48:51;11.90;;;8.30;;
42964;SDS011;28604;51.204;22.552;2023-03-11T06:51:20;15.18;;;9.82;;
42964;SDS011;28604;51.204;22.552;2023-03-11T06:53:50;13.70;;;8.27;;
42964;SDS011;28604;51.204;22.552;2023-03-11T06:56:19;11.68;;;8.23;;
42964;SDS011;28604;51.204;22.552;2023-03-11T06:58:52;11.45;;;8.02;;
42964;SDS011;28604;51.204;22.552;2023-03-11T07:01:19;11.93;;;8.52;;
42964;SDS011;28604;51.204;22.552;2023-03-11T07:03:48;16.13;;;8.55;;
42964;SDS011;28604;51.204;22.552;2023-03-11T07:06:16;11.90;;;8.35;;
42964;SDS011;28604;51.204;22.552;2023-03-11T07:08:48;15.30;;;8.88;;
42964;SDS011;28604;51.204;22.552;2023-03-11T07:11:19;13.75;;;9.73;;
42964;SDS011;28604;51.204;22.552;2023-03-11T07:13:49;14.25;;;9.55;;
42964;SDS011;28604;51.204;22.552;2023-03-11T07:16:17;15.18;;;10.38;;
42964;SDS011;28604;51.204;22.552;2023-03-11T07:18:46;16.92;;;10.15;;
42964;SDS011;28604;51.204;22.552;2023-03-11T07:21:14;10.23;;;8.55;;
42964;SDS011;28604;51.204;22.552;2023-03-11T07:23:42;14.05;;;9.80;;
42964;SDS011;28604;51.204;22.552;2023-03-11T07:26:09;14.00;;;9.70;;
42964;SDS011;28604;51.204;22.552;2023-03-11T07:28:36;17.75;;;11.15;;
42964;SDS011;28604;51.204;22.552;2023-03-11T07:31:10;12.30;;;9.85;;
42964;SDS011;28604;51.204;22.552;2023-03-11T07:33:41;14.70;;;9.98;;
42964;SDS011;28604;51.204;22.552;2023-03-11T07:36:08;15.68;;;10.02;;
42964;SDS011;28604;51.204;22.552;2023-03-11T07:38:36;11.75;;;9.10;;
42964;SDS011;28604;51.204;22.552;2023-03-11T07:41:03;13.70;;;9.45;;
42964;SDS011;28604;51.204;22.552;2023-03-11T07:43:30;15.02;;;9.98;;
42964;SDS011;28604;51.204;22.552;2023-03-11T07:46:01;12.35;;;9.05;;
42964;SDS011;28604;51.204;22.552;2023-03-11T07:48:29;12.50;;;8.70;;
42964;SDS011;28604;51.204;22.552;2023-03-11T07:50:59;14.68;;;9.32;;
42964;SDS011;28604;51.204;22.552;2023-03-11T07:53:26;18.48;;;9.68;;
42964;SDS011;28604;51.204;22.552;2023-03-11T07:55:55;13.55;;;8.95;;
42964;SDS011;28604;51.204;22.552;2023-03-11T07:58:22;14.07;;;9.25;;
42964;SDS011;28604;51.204;22.552;2023-03-11T08:00:49;11.35;;;8.38;;
42964;SDS011;28604;51.204;22.552;2023-03-11T08:03:16;12.23;;;8.30;;
42964;SDS011;28604;51.204;22.552;2023-03-11T08:05:42;13.02;;;6.68;;
42964;SDS011;28604;51.204;22.552;2023-03-11T08:08:08;8.07;;;6.53;;
42964;SDS011;28604;51.204;22.552;2023-03-11T08:10:37;12.38;;;6.75;;
42964;SDS011;28604;51.204;22.552;2023-03-11T08:13:04;10.60;;;7.03;;
42964;SDS011;28604;51.204;22.552;2023-03-11T08:15:30;9.45;;;7.07;;
42964;SDS011;28604;51.204;22.552;2023-03-11T08:17:56;12.57;;;8.50;;
42964;SDS011;28604;51.204;22.552;2023-03-11T08:20:22;15.10;;;9.23;;
42964;SDS011;28604;51.204;22.552;2023-03-11T08:22:48;12.60;;;8.52;;
42964;SDS011;28604;51.204;22.552;2023-03-11T08:25:14;12.23;;;8.40;;
42964;SDS011;28604;51.204;22.552;2023-03-11T08:27:40;12.27;;;7.75;;
42964;SDS011;28604;51.204;22.552;2023-03-11T08:30:07;7.22;;;6.10;;
42964;SDS011;28604;51.204;22.552;2023-03-11T08:32:34;7.57;;;5.93;;
42964;SDS011;28604;51.204;22.552;2023-03-11T08:35:00;12.40;;;6.25;;
42964;SDS011;28604;51.204;22.552;2023-03-11T08:37:26;9.43;;;5.30;;
42964;SDS011;28604;51.204;22.552;2023-03-11T08:39:52;8.27;;;6.05;;
42964;SDS011;28604;51.204;22.552;2023-03-11T08:42:18;6.15;;;5.22;;
42964;SDS011;28604;51.204;22.552;2023-03-11T08:44:45;6.18;;;4.68;;
42964;SDS011;28604;51.204;22.552;2023-03-11T08:47:11;7.40;;;4.15;;
42964;SDS011;28604;51.204;22.552;2023-03-11T08:49:37;5.43;;;4.18;;
42964;SDS011;28604;51.204;22.552;2023-03-11T08:52:04;5.18;;;3.80;;
42964;SDS011;28604;51.204;22.552;2023-03-11T08:54:30;5.78;;;3.72;;
42964;SDS011;28604;51.204;22.552;2023-03-11T08:56:57;4.47;;;2.95;;
42964;SDS011;28604;51.204;22.552;2023-03-11T08:59:27;3.78;;;2.53;;
42964;SDS011;28604;51.204;22.552;2023-03-11T09:01:54;6.53;;;3.03;;
42964;SDS011;28604;51.204;22.552;2023-03-11T09:04:20;3.20;;;2.05;;
42964;SDS011;28604;51.204;22.552;2023-03-11T09:06:46;2.38;;;2.17;;
42964;SDS011;28604;51.204;22.552;2023-03-11T09:09:15;5.82;;;3.65;;
42964;SDS011;28604;51.204;22.552;2023-03-11T09:11:45;5.13;;;2.90;;
42964;SDS011;28604;51.204;22.552;2023-03-11T09:14:12;2.75;;;2.20;;
42964;SDS011;28604;51.204;22.552;2023-03-11T09:16:38;3.35;;;1.92;;
42964;SDS011;28604;51.204;22.552;2023-03-11T09:19:04;3.33;;;2.05;;
42964;SDS011;28604;51.204;22.552;2023-03-11T09:21:32;1.65;;;1.52;;
42964;SDS011;28604;51.204;22.552;2023-03-11T09:23:59;1.52;;;1.30;;
42964;SDS011;28604;51.204;22.552;2023-03-11T09:26:25;1.95;;;1.38;;
42964;SDS011;28604;51.204;22.552;2023-03-11T09:28:51;1.52;;;1.40;;
42964;SDS011;28604;51.204;22.552;2023-03-11T09:31:18;2.55;;;1.10;;
42964;SDS011;28604;51.204;22.552;2023-03-11T09:33:44;1.00;;;0.80;;
42964;SDS011;28604;51.204;22.552;2023-03-11T09:36:11;1.95;;;0.80;;
42964;SDS011;28604;51.204;22.552;2023-03-11T09:38:39;1.60;;;1.38;;
42964;SDS011;28604;51.204;22.552;2023-03-11T09:44:27;1.33;;;1.00;;
42964;SDS011;28604;51.204;22.552;2023-03-11T09:47:08;0.95;;;0.85;;
42964;SDS011;28604;51.204;22.552;2023-03-11T10:03:55;0.60;;;0.43;;
42964;SDS011;28604;51.204;22.552;2023-03-11T10:06:28;1.17;;;0.80;;
42964;SDS011;28604;51.204;22.552;2023-03-11T10:08:58;0.98;;;0.70;;
42964;SDS011;28604;51.204;22.552;2023-03-11T10:11:55;0.77;;;0.70;;
42964;SDS011;28604;51.204;22.552;2023-03-11T10:17:07;0.70;;;0.47;;
42964;SDS011;28604;51.204;22.552;2023-03-11T10:19:55;1.92;;;1.30;;
42964;SDS011;28604;51.204;22.552;2023-03-11T10:22:41;1.38;;;0.95;;
42964;SDS011;28604;51.204;22.552;2023-03-11T10:25:14;1.02;;;0.45;;
42964;SDS011;28604;51.204;22.552;2023-03-11T10:28:04;2.17;;;0.40;;
42964;SDS011;28604;51.204;22.552;2023-03-11T10:30:39;1.33;;;0.80;;
42964;SDS011;28604;51.204;22.552;2023-03-11T10:35:58;1.67;;;0.68;;
42964;SDS011;28604;51.204;22.552;2023-03-11T10:38:46;0.55;;;0.43;;
42964;SDS011;28604;51.204;22.552;2023-03-11T10:41:19;0.63;;;0.50;;
42964;SDS011;28604;51.204;22.552;2023-03-11T10:44:10;0.95;;;0.75;;
42964;SDS011;28604;51.204;22.552;2023-03-11T10:46:38;2.85;;;0.30;;
42964;SDS011;28604;51.204;22.552;2023-03-11T10:49:04;0.57;;;0.57;;
42964;SDS011;28604;51.204;22.552;2023-03-11T10:51:37;0.70;;;0.70;;
42964;SDS011;28604;51.204;22.552;2023-03-11T10:54:04;1.27;;;0.98;;
42964;SDS011;28604;51.204;22.552;2023-03-11T10:56:37;1.50;;;0.98;;
42964;SDS011;28604;51.204;22.552;2023-03-11T10:59:27;0.85;;;0.82;;
42964;SDS011;28604;51.204;22.552;2023-03-11T11:02:18;1.42;;;0.57;;
42964;SDS011;28604;51.204;22.552;2023-03-11T11:04:47;0.75;;;0.30;;
42964;SDS011;28604;51.204;22.552;2023-03-11T11:07:28;0.70;;;0.70;;
42964;SDS011;28604;51.204;22.552;2023-03-11T11:16:03;0.95;;;0.68;;
42964;SDS011;28604;51.204;22.552;2023-03-11T11:18:42;0.85;;;0.50;;
42964;SDS011;28604;51.204;22.552;2023-03-11T11:21:33;1.10;;;0.60;;
42964;SDS011;28604;51.204;22.552;2023-03-11T11:24:03;0.60;;;0.50;;
42964;SDS011;28604;51.204;22.552;2023-03-11T11:26:38;0.88;;;0.70;;
42964;SDS011;28604;51.204;22.552;2023-03-11T11:31:43;0.80;;;0.75;;
42964;SDS011;28604;51.204;22.552;2023-03-11T11:34:23;0.75;;;0.68;;
42964;SDS011;28604;51.204;22.552;2023-03-11T11:36:55;0.60;;;0.60;;
42964;SDS011;28604;51.204;22.552;2023-03-11T11:39:25;2.08;;;0.52;;
42964;SDS011;28604;51.204;22.552;2023-03-11T11:41:53;0.90;;;0.63;;
42964;SDS011;28604;51.204;22.552;2023-03-11T11:44:21;0.70;;;0.70;;
42964;SDS011;28604;51.204;22.552;2023-03-11T11:46:56;0.75;;;0.52;;
42964;SDS011;28604;51.204;22.552;2023-03-11T11:52:02;1.17;;;0.85;;
42964;SDS011;28604;51.204;22.552;2023-03-11T11:54:34;1.38;;;0.90;;
42964;SDS011;28604;51.204;22.552;2023-03-11T11:57:13;1.05;;;0.77;;
42964;SDS011;28604;51.204;22.552;2023-03-11T11:59:41;0.50;;;0.50;;
42964;SDS011;28604;51.204;22.552;2023-03-11T12:24:24;0.40;;;0.40;;
42964;SDS011;28604;51.204;22.552;2023-03-11T12:27:33;2.17;;;0.40;;
42964;SDS011;28604;51.204;22.552;2023-03-11T12:32:51;0.63;;;0.63;;
42964;SDS011;28604;51.204;22.552;2023-03-11T12:35:29;1.27;;;0.68;;
42964;SDS011;28604;51.204;22.552;2023-03-11T12:38:01;0.52;;;0.52;;
42964;SDS011;28604;51.204;22.552;2023-03-11T12:45:58;2.15;;;1.02;;
42964;SDS011;28604;51.204;22.552;2023-03-11T12:50:54;1.17;;;0.50;;
42964;SDS011;28604;51.204;22.552;2023-03-11T12:53:25;1.95;;;0.80;;
42964;SDS011;28604;51.204;22.552;2023-03-11T13:07:44;0.50;;;0.50;;
42964;SDS011;28604;51.204;22.552;2023-03-11T13:13:20;3.83;;;1.90;;
42964;SDS011;28604;51.204;22.552;2023-03-11T13:15:50;1.15;;;1.05;;
42964;SDS011;28604;51.204;22.552;2023-03-11T13:18:17;1.10;;;1.00;;
42964;SDS011;28604;51.204;22.552;2023-03-11T13:20:53;0.98;;;0.85;;
42964;SDS011;28604;51.204;22.552;2023-03-11T13:34:40;0.85;;;0.57;;
42964;SDS011;28604;51.204;22.552;2023-03-11T13:39:53;1.60;;;0.50;;
42964;SDS011;28604;51.204;22.552;2023-03-11T13:45:17;1.55;;;0.95;;
42964;SDS011;28604;51.204;22.552;2023-03-11T13:47:58;4.25;;;1.52;;
42964;SDS011;28604;51.204;22.552;2023-03-11T13:50:53;3.22;;;1.77;;
42964;SDS011;28604;51.204;22.552;2023-03-11T13:53:26;1.58;;;1.45;;
42964;SDS011;28604;51.204;22.552;2023-03-11T13:56:01;2.15;;;1.50;;
42964;SDS011;28604;51.204;22.552;2023-03-11T13:58:29;2.08;;;1.42;;
42964;SDS011;28604;51.204;22.552;2023-03-11T14:00:56;1.88;;;1.65;;
42964;SDS011;28604;51.204;22.552;2023-03-11T14:03:24;5.43;;;2.00;;
42964;SDS011;28604;51.204;22.552;2023-03-11T14:06:03;2.95;;;1.52;;
42964;SDS011;28604;51.204;22.552;2023-03-11T14:08:33;5.25;;;2.95;;
42964;SDS011;28604;51.204;22.552;2023-03-11T14:11:01;2.97;;;2.35;;
42964;SDS011;28604;51.204;22.552;2023-03-11T14:13:48;3.00;;;2.13;;
42964;SDS011;28604;51.204;22.552;2023-03-11T14:16:16;5.05;;;3.40;;
42964;SDS011;28604;51.204;22.552;2023-03-11T14:19:01;3.03;;;2.80;;
42964;SDS011;28604;51.204;22.552;2023-03-11T14:21:41;5.07;;;3.22;;
42964;SDS011;28604;51.204;22.552;2023-03-11T14:24:18;4.78;;;3.88;;
42964;SDS011;28604;51.204;22.552;2023-03-11T14:26:46;5.10;;;3.83;;
42964;SDS011;28604;51.204;22.552;2023-03-11T14:29:16;5.68;;;3.72;;
42964;SDS011;28604;51.204;22.552;2023-03-11T14:31:44;4.15;;;3.40;;
42964;SDS011;28604;51.204;22.552;2023-03-11T14:34:24;5.03;;;4.00;;
42964;SDS011;28604;51.204;22.552;2023-03-11T14:44:47;4.15;;;3.47;;
42964;SDS011;28604;51.204;22.552;2023-03-11T14:47:24;5.85;;;3.33;;
42964;SDS011;28604;51.204;22.552;2023-03-11T14:50:00;4.13;;;3.00;;
42964;SDS011;28604;51.204;22.552;2023-03-11T14:52:32;5.03;;;3.40;;
42964;SDS011;28604;51.204;22.552;2023-03-11T14:55:03;3.53;;;3.10;;
42964;SDS011;28604;51.204;22.552;2023-03-11T14:57:37;6.03;;;4.00;;
42964;SDS011;28604;51.204;22.552;2023-03-11T15:00:14;5.63;;;4.68;;
42964;SDS011;28604;51.204;22.552;2023-03-11T15:02:45;7.18;;;4.53;;
42964;SDS011;28604;51.204;22.552;2023-03-11T15:08:09;6.47;;;4.53;;
42964;SDS011;28604;51.204;22.552;2023-03-11T15:10:35;4.93;;;4.43;;
42964;SDS011;28604;51.204;22.552;2023-03-11T15:13:05;6.78;;;5.15;;
42964;SDS011;28604;51.204;22.552;2023-03-11T15:15:39;10.40;;;7.93;;
42964;SDS011;28604;51.204;22.552;2023-03-11T15:18:19;7.28;;;5.35;;
42964;SDS011;28604;51.204;22.552;2023-03-11T15:21:00;9.80;;;5.93;;
42964;SDS011;28604;51.204;22.552;2023-03-11T15:23:28;9.10;;;5.90;;
42964;SDS011;28604;51.204;22.552;2023-03-11T15:25:54;6.55;;;5.05;;
42964;SDS011;28604;51.204;22.552;2023-03-11T15:28:21;5.95;;;4.07;;
42964;SDS011;28604;51.204;22.552;2023-03-11T15:30:50;5.93;;;3.83;;
42964;SDS011;28604;51.204;22.552;2023-03-11T15:33:36;6.95;;;4.45;;
42964;SDS011;28604;51.204;22.552;2023-03-11T15:36:03;5.57;;;4.45;;
42964;SDS011;28604;51.204;22.552;2023-03-11T15:38:29;5.32;;;3.70;;
42964;SDS011;28604;51.204;22.552;2023-03-11T15:40:56;5.72;;;4.53;;
42964;SDS011;28604;51.204;22.552;2023-03-11T15:43:28;7.30;;;4.20;;
42964;SDS011;28604;51.204;22.552;2023-03-11T15:45:57;4.75;;;3.90;;
42964;SDS011;28604;51.204;22.552;2023-03-11T15:48:26;6.72;;;4.55;;
42964;SDS011;28604;51.204;22.552;2023-03-11T15:50:55;4.13;;;3.80;;
42964;SDS011;28604;51.204;22.552;2023-03-11T15:53:23;4.28;;;3.35;;
42964;SDS011;28604;51.204;22.552;2023-03-11T15:55:50;4.28;;;3.85;;
42964;SDS011;28604;51.204;22.552;2023-03-11T15:58:18;5.07;;;3.42;;
42964;SDS011;28604;51.204;22.552;2023-03-11T16:00:48;4.10;;;3.08;;
42964;SDS011;28604;51.204;22.552;2023-03-11T16:03:16;5.55;;;4.00;;
42964;SDS011;28604;51.204;22.552;2023-03-11T16:05:43;5.40;;;3.65;;
42964;SDS011;28604;51.204;22.552;2023-03-11T16:08:09;4.97;;;3.47;;
42964;SDS011;28604;51.204;22.552;2023-03-11T16:10:36;2.95;;;2.63;;
42964;SDS011;28604;51.204;22.552;2023-03-11T16:13:02;3.45;;;2.65;;
42964;SDS011;28604;51.204;22.552;2023-03-11T16:15:30;4.93;;;2.92;;
42964;SDS011;28604;51.204;22.552;2023-03-11T16:17:58;4.07;;;3.47;;
42964;SDS011;28604;51.204;22.552;2023-03-11T16:20:27;6.05;;;3.83;;
42964;SDS011;28604;51.204;22.552;2023-03-11T16:22:57;8.45;;;4.20;;
42964;SDS011;28604;51.204;22.552;2023-03-11T16:27:58;7.78;;;4.82;;
42964;SDS011;28604;51.204;22.552;2023-03-11T16:30:27;9.52;;;5.20;;
42964;SDS011;28604;51.204;22.552;2023-03-11T16:32:54;9.93;;;5.45;;
42964;SDS011;28604;51.204;22.552;2023-03-11T16:35:21;6.72;;;5.13;;
42964;SDS011;28604;51.204;22.552;2023-03-11T16:37:47;8.75;;;5.55;;
42964;SDS011;28604;51.204;22.552;2023-03-11T16:40:14;12.25;;;7.18;;